sensor_id;sensor_type;location;lat;lon;timestamp;pressure;altitude;pressure_sealevel;temperature;humidity
63009;BME280;49099;28.428;-16.488;2023-05-19T00:00:35;99077.22;;;21.37;50.68
63009;BME280;49099;28.428;-16.488;2023-05-19T00:03:03;99069.59;;;21.30;50.97
63009;BME280;49099;28.428;-16.488;2023-05-19T00:05:31;99066.13;;;21.30;51.11
63009;BME280;49099;28.428;-16.488;2023-05-19T00:07:58;99071.34;;;21.26;50.28
63009;BME280;49099;28.428;-16.488;2023-05-19T00:10:29;99075.78;;;21.22;50.53
63009;BME280;49099;28.428;-16.488;2023-05-19T00:12:58;99068.66;;;21.18;50.83
63009;BME280;49099;28.428;-16.488;2023-05-19T00:15:25;99073.09;;;21.13;50.54
63009;BME280;49099;28.428;-16.488;2023-05-19T00:17:52;99074.53;;;21.11;50.46
63009;BME280;49099;28.428;-16.488;2023-05-19T00:20:21;99065.31;;;21.12;50.70
63009;BME280;49099;28.428;-16.488;2023-05-19T00:22:48;99066.75;;;21.18;49.76
63009;BME280;49099;28.428;-16.488;2023-05-19T00:25:16;99064.38;;;21.25;49.34
63009;BME280;49099;28.428;-16.488;2023-05-19T00:27:44;99066.44;;;21.28;49.26
63009;BME280;49099;28.428;-16.488;2023-05-19T00:30:12;99068.16;;;21.24;49.28
63009;BME280;49099;28.428;-16.488;2023-05-19T00:32:39;99068.81;;;21.21;49.00
63009;BME280;49099;28.428;-16.488;2023-05-19T00:35:07;99061.16;;;21.23;49.07
63009;BME280;49099;28.428;-16.488;2023-05-19T00:37:34;99049.91;;;21.21;49.43
63009;BME280;49099;28.428;-16.488;2023-05-19T00:40:01;99063.75;;;21.28;49.89
63009;BME280;49099;28.428;-16.488;2023-05-19T00:42:31;99052.28;;;21.31;50.00
63009;BME280;49099;28.428;-16.488;2023-05-19T00:44:58;99058.81;;;21.30;50.00
63009;BME280;49099;28.428;-16.488;2023-05-19T00:47:25;99053.06;;;21.23;50.36
63009;BME280;49099;28.428;-16.488;2023-05-19T00:49:53;99053.56;;;21.25;50.74
63009;BME280;49099;28.428;-16.488;2023-05-19T00:52:20;99054.53;;;21.29;50.30
63009;BME280;49099;28.428;-16.488;2023-05-19T00:54:48;99049.25;;;21.24;49.78
63009;BME280;49099;28.428;-16.488;2023-05-19T00:57:17;99048.81;;;21.22;49.70
63009;BME280;49099;28.428;-16.488;2023-05-19T00:59:45;99054.69;;;21.15;49.17
63009;BME280;49099;28.428;-16.488;2023-05-19T01:02:13;99050.72;;;21.13;49.25
63009;BME280;49099;28.428;-16.488;2023-05-19T01:04:42;99051.06;;;21.11;49.25
63009;BME280;49099;28.428;-16.488;2023-05-19T01:07:11;99048.34;;;21.11;48.11
63009;BME280;49099;28.428;-16.488;2023-05-19T01:09:38;99048.84;;;21.05;48.12
63009;BME280;49099;28.428;-16.488;2023-05-19T01:12:06;99054.38;;;21.00;48.86
63009;BME280;49099;28.428;-16.488;2023-05-19T01:14:34;99050.75;;;20.96;49.26
63009;BME280;49099;28.428;-16.488;2023-05-19T01:17:20;99045.66;;;21.03;49.56
63009;BME280;49099;28.428;-16.488;2023-05-19T01:31:24;99031.22;;;20.99;51.06
63009;BME280;49099;28.428;-16.488;2023-05-19T01:33:52;99030.59;;;21.02;50.74
63009;BME280;49099;28.428;-16.488;2023-05-19T01:36:21;99032.81;;;21.00;50.19
63009;BME280;49099;28.428;-16.488;2023-05-19T01:38:51;99025.69;;;20.95;50.04
63009;BME280;49099;28.428;-16.488;2023-05-19T01:41:20;99031.53;;;20.97;50.03
63009;BME280;49099;28.428;-16.488;2023-05-19T01:43:48;99015.69;;;20.96;50.23
63009;BME280;49099;28.428;-16.488;2023-05-19T01:46:16;99014.13;;;20.95;50.51
63009;BME280;49099;28.428;-16.488;2023-05-19T01:48:44;99002.69;;;20.89;50.23
63009;BME280;49099;28.428;-16.488;2023-05-19T01:51:12;99003.63;;;20.84;50.23
63009;BME280;49099;28.428;-16.488;2023-05-19T01:53:40;98993.34;;;20.78;51.00
63009;BME280;49099;28.428;-16.488;2023-05-19T01:56:07;98992.06;;;20.75;50.50
63009;BME280;49099;28.428;-16.488;2023-05-19T01:58:44;98991.28;;;20.75;50.23
63009;BME280;49099;28.428;-16.488;2023-05-19T02:01:36;98991.13;;;20.71;49.71
63009;BME280;49099;28.428;-16.488;2023-05-19T02:09:36;98990.03;;;20.64;50.00
63009;BME280;49099;28.428;-16.488;2023-05-19T02:15:13;98995.88;;;20.74;50.21
63009;BME280;49099;28.428;-16.488;2023-05-19T02:17:45;98985.09;;;20.74;50.02
63009;BME280;49099;28.428;-16.488;2023-05-19T02:20:17;98982.25;;;20.79;50.34
63009;BME280;49099;28.428;-16.488;2023-05-19T02:22:44;98979.69;;;20.74;49.81
63009;BME280;49099;28.428;-16.488;2023-05-19T02:25:11;98977.94;;;20.70;49.84
63009;BME280;49099;28.428;-16.488;2023-05-19T02:27:40;98977.94;;;20.70;49.58
63009;BME280;49099;28.428;-16.488;2023-05-19T02:30:08;98972.41;;;20.66;49.47
63009;BME280;49099;28.428;-16.488;2023-05-19T02:32:35;98977.16;;;20.69;50.48
63009;BME280;49099;28.428;-16.488;2023-05-19T02:35:03;98964.19;;;20.71;51.02
63009;BME280;49099;28.428;-16.488;2023-05-19T02:37:30;98962.59;;;20.70;52.11
63009;BME280;49099;28.428;-16.488;2023-05-19T02:39:58;98956.72;;;20.68;52.76
63009;BME280;49099;28.428;-16.488;2023-05-19T02:42:25;98956.56;;;20.73;52.83
63009;BME280;49099;28.428;-16.488;2023-05-19T02:44:53;98952.59;;;20.71;53.08
63009;BME280;49099;28.428;-16.488;2023-05-19T02:47:21;98950.84;;;20.66;53.94
63009;BME280;49099;28.428;-16.488;2023-05-19T02:49:48;98948.31;;;20.61;54.57
63009;BME280;49099;28.428;-16.488;2023-05-19T02:52:15;98951.81;;;20.62;55.20
63009;BME280;49099;28.428;-16.488;2023-05-19T02:54:42;98951.50;;;20.63;55.23
63009;BME280;49099;28.428;-16.488;2023-05-19T02:57:13;98947.03;;;20.67;55.75
63009;BME280;49099;28.428;-16.488;2023-05-19T02:59:40;98951.00;;;20.61;55.69
63009;BME280;49099;28.428;-16.488;2023-05-19T03:02:08;98945.94;;;20.59;56.03
63009;BME280;49099;28.428;-16.488;2023-05-19T03:04:35;98937.53;;;20.61;55.89
63009;BME280;49099;28.428;-16.488;2023-05-19T03:07:08;98933.91;;;20.66;55.14
63009;BME280;49099;28.428;-16.488;2023-05-19T03:09:36;98942.44;;;20.68;55.56
63009;BME280;49099;28.428;-16.488;2023-05-19T03:12:04;98936.25;;;20.67;55.44
63009;BME280;49099;28.428;-16.488;2023-05-19T03:14:34;98932.63;;;20.63;55.37
63009;BME280;49099;28.428;-16.488;2023-05-19T03:17:04;98932.78;;;20.58;55.01
63009;BME280;49099;28.428;-16.488;2023-05-19T03:19:35;98922.66;;;20.55;54.46
63009;BME280;49099;28.428;-16.488;2023-05-19T03:22:03;98929.78;;;20.51;54.84
63009;BME280;49099;28.428;-16.488;2023-05-19T03:24:30;98927.72;;;20.56;54.94
63009;BME280;49099;28.428;-16.488;2023-05-19T03:26:58;98928.19;;;20.58;54.61
63009;BME280;49099;28.428;-16.488;2023-05-19T03:29:25;98932.31;;;20.56;54.85
63009;BME280;49099;28.428;-16.488;2023-05-19T03:31:52;98928.66;;;20.52;54.61
63009;BME280;49099;28.428;-16.488;2023-05-19T03:34:19;98930.75;;;20.55;54.41
63009;BME280;49099;28.428;-16.488;2023-05-19T03:36:48;98922.50;;;20.51;54.54
63009;BME280;49099;28.428;-16.488;2023-05-19T03:39:16;98927.72;;;20.48;54.01
63009;BME280;49099;28.428;-16.488;2023-05-19T03:41:43;98921.22;;;20.49;54.50
63009;BME280;49099;28.428;-16.488;2023-05-19T03:44:10;98914.72;;;20.50;54.50
63009;BME280;49099;28.428;-16.488;2023-05-19T03:46:37;98918.84;;;20.56;54.62
63009;BME280;49099;28.428;-16.488;2023-05-19T03:49:05;98923.44;;;20.64;54.60
63009;BME280;49099;28.428;-16.488;2023-05-19T03:51:32;98925.16;;;20.60;54.33
63009;BME280;49099;28.428;-16.488;2023-05-19T03:54:00;98922.31;;;20.65;54.53
63009;BME280;49099;28.428;-16.488;2023-05-19T03:56:28;98923.25;;;20.69;54.51
63009;BME280;49099;28.428;-16.488;2023-05-19T03:58:55;98917.41;;;20.67;54.84
63009;BME280;49099;28.428;-16.488;2023-05-19T04:01:22;98914.38;;;20.60;54.62
63009;BME280;49099;28.428;-16.488;2023-05-19T04:03:49;98925.03;;;20.56;54.08
63009;BME280;49099;28.428;-16.488;2023-05-19T04:06:17;98917.09;;;20.60;54.27
63009;BME280;49099;28.428;-16.488;2023-05-19T04:08:44;98920.09;;;20.67;54.58
63009;BME280;49099;28.428;-16.488;2023-05-19T04:11:12;98922.16;;;20.62;54.13
63009;BME280;49099;28.428;-16.488;2023-05-19T04:13:39;98915.97;;;20.61;54.19
63009;BME280;49099;28.428;-16.488;2023-05-19T04:16:06;98911.53;;;20.65;54.98
63009;BME280;49099;28.428;-16.488;2023-05-19T04:18:33;98908.97;;;20.69;55.87
63009;BME280;49099;28.428;-16.488;2023-05-19T04:21:00;98912.00;;;20.76;55.27
63009;BME280;49099;28.428;-16.488;2023-05-19T04:23:28;98907.22;;;20.81;55.08
63009;BME280;49099;28.428;-16.488;2023-05-19T04:25:55;98917.25;;;20.72;55.83
63009;BME280;49099;28.428;-16.488;2023-05-19T04:28:23;98909.78;;;20.69;56.50
63009;BME280;49099;28.428;-16.488;2023-05-19T04:30:51;98914.38;;;20.69;55.98
63009;BME280;49099;28.428;-16.488;2023-05-19T04:33:18;98923.56;;;20.76;56.27
63009;BME280;49099;28.428;-16.488;2023-05-19T04:35:45;98920.72;;;20.81;56.94
63009;BME280;49099;28.428;-16.488;2023-05-19T04:38:12;98916.59;;;20.75;56.90
63009;BME280;49099;28.428;-16.488;2023-05-19T04:40:44;98922.31;;;20.74;57.29
63009;BME280;49099;28.428;-16.488;2023-05-19T04:43:11;98913.25;;;20.70;57.52
63009;BME280;49099;28.428;-16.488;2023-05-19T04:45:38;98917.25;;;20.72;56.86
63009;BME280;49099;28.428;-16.488;2023-05-19T04:48:08;98919.75;;;20.77;56.81
63009;BME280;49099;28.428;-16.488;2023-05-19T04:50:36;98916.91;;;20.74;57.35
63009;BME280;49099;28.428;-16.488;2023-05-19T04:53:04;98913.44;;;20.73;56.93
63009;BME280;49099;28.428;-16.488;2023-05-19T04:55:31;98912.63;;;20.73;56.74
63009;BME280;49099;28.428;-16.488;2023-05-19T04:57:58;98914.06;;;20.70;57.27
63009;BME280;49099;28.428;-16.488;2023-05-19T05:00:25;98913.44;;;20.73;57.01
63009;BME280;49099;28.428;-16.488;2023-05-19T05:02:53;98912.78;;;20.76;56.78
63009;BME280;49099;28.428;-16.488;2023-05-19T05:05:23;98910.72;;;20.73;56.59
63009;BME280;49099;28.428;-16.488;2023-05-19T05:07:50;98907.25;;;20.73;56.63
63009;BME280;49099;28.428;-16.488;2023-05-19T05:10:20;98911.06;;;20.72;56.55
63009;BME280;49099;28.428;-16.488;2023-05-19T05:12:48;98910.72;;;20.73;56.16
63009;BME280;49099;28.428;-16.488;2023-05-19T05:15:16;98914.88;;;20.71;56.33
63009;BME280;49099;28.428;-16.488;2023-05-19T05:17:43;98917.88;;;20.69;56.29
63009;BME280;49099;28.428;-16.488;2023-05-19T05:20:12;98919.16;;;20.63;56.35
63009;BME280;49099;28.428;-16.488;2023-05-19T05:22:39;98910.13;;;20.59;56.82
63009;BME280;49099;28.428;-16.488;2023-05-19T05:25:07;98911.88;;;20.55;57.07
63009;BME280;49099;28.428;-16.488;2023-05-19T05:27:34;98925.50;;;20.58;57.22
63009;BME280;49099;28.428;-16.488;2023-05-19T05:30:03;98912.16;;;20.62;57.18
63009;BME280;49099;28.428;-16.488;2023-05-19T05:32:30;98920.75;;;20.64;57.17
63009;BME280;49099;28.428;-16.488;2023-05-19T05:34:58;98925.47;;;20.67;57.08
63009;BME280;49099;28.428;-16.488;2023-05-19T05:37:25;98928.63;;;20.69;57.10
63009;BME280;49099;28.428;-16.488;2023-05-19T05:39:52;98927.03;;;20.77;56.80
63009;BME280;49099;28.428;-16.488;2023-05-19T05:42:19;98927.06;;;20.68;57.21
63009;BME280;49099;28.428;-16.488;2023-05-19T05:44:46;98931.53;;;20.64;57.50
63009;BME280;49099;28.428;-16.488;2023-05-19T05:47:14;98934.03;;;20.69;57.84
63009;BME280;49099;28.428;-16.488;2023-05-19T05:49:41;98933.41;;;20.72;57.80
63009;BME280;49099;28.428;-16.488;2023-05-19T05:52:11;98935.31;;;20.72;58.00
63009;BME280;49099;28.428;-16.488;2023-05-19T05:54:38;98928.97;;;20.59;58.26
63009;BME280;49099;28.428;-16.488;2023-05-19T05:57:06;98929.44;;;20.61;57.88
63009;BME280;49099;28.428;-16.488;2023-05-19T05:59:33;98937.69;;;20.65;57.05
63009;BME280;49099;28.428;-16.488;2023-05-19T06:02:00;98939.44;;;20.69;56.96
63009;BME280;49099;28.428;-16.488;2023-05-19T06:04:28;98948.47;;;20.73;57.38
63009;BME280;49099;28.428;-16.488;2023-05-19T06:06:55;98938.34;;;20.70;57.93
63009;BME280;49099;28.428;-16.488;2023-05-19T06:09:26;98949.28;;;20.65;57.88
63009;BME280;49099;28.428;-16.488;2023-05-19T06:11:57;98950.72;;;20.63;57.52
63009;BME280;49099;28.428;-16.488;2023-05-19T06:14:26;98951.00;;;20.61;56.67
63009;BME280;49099;28.428;-16.488;2023-05-19T06:16:53;98953.09;;;20.64;56.47
63009;BME280;49099;28.428;-16.488;2023-05-19T06:19:20;98951.81;;;20.53;56.78
63009;BME280;49099;28.428;-16.488;2023-05-19T06:21:47;98942.31;;;20.47;57.19
63009;BME280;49099;28.428;-16.488;2023-05-19T06:24:14;98942.78;;;20.49;57.27
63009;BME280;49099;28.428;-16.488;2023-05-19T06:26:42;98957.84;;;20.50;57.56
63009;BME280;49099;28.428;-16.488;2023-05-19T06:29:09;98954.50;;;20.53;57.47
63009;BME280;49099;28.428;-16.488;2023-05-19T06:31:37;98954.81;;;20.51;57.85
63009;BME280;49099;28.428;-16.488;2023-05-19T06:34:04;98957.19;;;20.53;58.00
63009;BME280;49099;28.428;-16.488;2023-05-19T06:36:31;98954.69;;;20.56;57.70
63009;BME280;49099;28.428;-16.488;2023-05-19T06:39:00;98957.34;;;20.65;57.32
63009;BME280;49099;28.428;-16.488;2023-05-19T06:41:28;98960.38;;;20.72;57.20
63009;BME280;49099;28.428;-16.488;2023-05-19T06:43:55;98965.44;;;20.74;56.85
63009;BME280;49099;28.428;-16.488;2023-05-19T06:46:22;98967.66;;;20.80;56.64
63009;BME280;49099;28.428;-16.488;2023-05-19T06:48:50;98962.25;;;20.80;56.99
63009;BME280;49099;28.428;-16.488;2023-05-19T06:51:17;98969.09;;;20.78;57.59
63009;BME280;49099;28.428;-16.488;2023-05-19T06:53:47;98965.44;;;20.74;58.28
63009;BME280;49099;28.428;-16.488;2023-05-19T06:56:15;98972.25;;;20.71;58.16
63009;BME280;49099;28.428;-16.488;2023-05-19T06:58:42;98974.97;;;20.71;58.09
63009;BME280;49099;28.428;-16.488;2023-05-19T07:01:09;98977.34;;;20.73;57.90
63009;BME280;49099;28.428;-16.488;2023-05-19T07:03:36;98973.53;;;20.65;57.94
63009;BME280;49099;28.428;-16.488;2023-05-19T07:06:04;98979.84;;;20.69;57.70
63009;BME280;49099;28.428;-16.488;2023-05-19T07:08:33;98982.88;;;20.76;57.16
63009;BME280;49099;28.428;-16.488;2023-05-19T07:11:03;98981.91;;;20.81;56.87
63009;BME280;49099;28.428;-16.488;2023-05-19T07:13:30;98992.69;;;20.90;56.40
63009;BME280;49099;28.428;-16.488;2023-05-19T07:15:58;98976.66;;;20.93;56.16
63009;BME280;49099;28.428;-16.488;2023-05-19T07:18:25;98987.44;;;20.93;56.17
63009;BME280;49099;28.428;-16.488;2023-05-19T07:20:53;98983.50;;;20.91;55.73
63009;BME280;49099;28.428;-16.488;2023-05-19T07:23:24;98992.03;;;20.93;55.52
63009;BME280;49099;28.428;-16.488;2023-05-19T07:25:56;98993.31;;;20.95;55.12
63009;BME280;49099;28.428;-16.488;2023-05-19T07:28:24;98992.22;;;20.96;55.21
63009;BME280;49099;28.428;-16.488;2023-05-19T07:30:51;98993.03;;;20.88;54.78
63009;BME280;49099;28.428;-16.488;2023-05-19T07:33:19;98987.00;;;20.82;55.24
63009;BME280;49099;28.428;-16.488;2023-05-19T07:35:46;98995.53;;;20.84;54.97
63009;BME280;49099;28.428;-16.488;2023-05-19T07:38:13;98996.50;;;20.89;54.83
63009;BME280;49099;28.428;-16.488;2023-05-19T07:40:40;98997.44;;;20.93;54.76
63009;BME280;49099;28.428;-16.488;2023-05-19T07:43:08;98996.34;;;20.94;54.19
63009;BME280;49099;28.428;-16.488;2023-05-19T07:45:35;99004.59;;;20.97;54.35
63009;BME280;49099;28.428;-16.488;2023-05-19T07:48:02;98999.97;;;20.98;54.04
63009;BME280;49099;28.428;-16.488;2023-05-19T07:50:30;98999.31;;;21.01;53.50
63009;BME280;49099;28.428;-16.488;2023-05-19T07:52:58;99006.47;;;21.05;52.88
63009;BME280;49099;28.428;-16.488;2023-05-19T07:55:25;99000.94;;;21.02;53.13
63009;BME280;49099;28.428;-16.488;2023-05-19T07:57:52;98999.50;;;21.04;52.86
63009;BME280;49099;28.428;-16.488;2023-05-19T08:00:19;98996.63;;;21.01;53.28
63009;BME280;49099;28.428;-16.488;2023-05-19T08:02:47;98998.22;;;20.93;53.93
63009;BME280;49099;28.428;-16.488;2023-05-19T08:05:14;99002.22;;;20.96;53.07
63009;BME280;49099;28.428;-16.488;2023-05-19T08:07:41;99001.75;;;20.94;53.09
63009;BME280;49099;28.428;-16.488;2023-05-19T08:10:08;98996.16;;;20.99;52.55
63009;BME280;49099;28.428;-16.488;2023-05-19T08:12:36;99000.75;;;21.07;53.26
63009;BME280;49099;28.428;-16.488;2023-05-19T08:15:03;98999.31;;;21.18;52.15
63009;BME280;49099;28.428;-16.488;2023-05-19T08:17:31;99003.13;;;21.17;52.66
63009;BME280;49099;28.428;-16.488;2023-05-19T08:19:58;99002.16;;;21.13;52.45
63009;BME280;49099;28.428;-16.488;2023-05-19T08:22:26;99014.19;;;21.24;52.20
63009;BME280;49099;28.428;-16.488;2023-05-19T08:24:53;99018.34;;;21.13;51.80
63009;BME280;49099;28.428;-16.488;2023-05-19T08:27:21;99003.63;;;21.10;52.25
63009;BME280;49099;28.428;-16.488;2023-05-19T08:29:48;99004.88;;;21.04;52.75
63009;BME280;49099;28.428;-16.488;2023-05-19T08:32:15;99003.13;;;21.00;53.22
63009;BME280;49099;28.428;-16.488;2023-05-19T08:34:43;98992.53;;;20.95;53.30
63009;BME280;49099;28.428;-16.488;2023-05-19T08:37:10;98996.94;;;20.99;53.03
63009;BME280;49099;28.428;-16.488;2023-05-19T08:39:37;98999.97;;;20.98;52.76
63009;BME280;49099;28.428;-16.488;2023-05-19T08:42:05;99000.75;;;20.98;51.66
63009;BME280;49099;28.428;-16.488;2023-05-19T08:44:35;98998.69;;;21.04;52.12
63009;BME280;49099;28.428;-16.488;2023-05-19T08:47:03;99000.16;;;21.01;51.19
63009;BME280;49099;28.428;-16.488;2023-05-19T08:49:35;99001.56;;;20.99;51.78
63009;BME280;49099;28.428;-16.488;2023-05-19T08:52:16;99003.31;;;21.03;51.78
63009;BME280;49099;28.428;-16.488;2023-05-19T08:55:02;99001.06;;;21.05;51.11
63009;BME280;49099;28.428;-16.488;2023-05-19T08:57:31;98996.78;;;21.04;51.13
63009;BME280;49099;28.428;-16.488;2023-05-19T08:59:59;98997.25;;;21.06;50.85
63009;BME280;49099;28.428;-16.488;2023-05-19T09:02:27;99003.94;;;21.09;49.53
63009;BME280;49099;28.428;-16.488;2023-05-19T09:04:55;99001.25;;;21.09;49.26
63009;BME280;49099;28.428;-16.488;2023-05-19T09:07:24;99009.47;;;21.12;50.05
63009;BME280;49099;28.428;-16.488;2023-05-19T09:09:51;99004.72;;;21.18;50.45
63009;BME280;49099;28.428;-16.488;2023-05-19T09:12:19;99005.63;;;21.22;50.20
63009;BME280;49099;28.428;-16.488;2023-05-19T09:14:47;99007.06;;;21.37;50.60
63009;BME280;49099;28.428;-16.488;2023-05-19T09:17:14;98999.94;;;21.15;50.58
63009;BME280;49099;28.428;-16.488;2023-05-19T09:19:43;98997.44;;;21.10;51.72
63009;BME280;49099;28.428;-16.488;2023-05-19T09:22:10;99007.25;;;21.14;52.26
63009;BME280;49099;28.428;-16.488;2023-05-19T09:24:40;99001.81;;;21.23;51.64
63009;BME280;49099;28.428;-16.488;2023-05-19T09:27:08;99009.00;;;21.28;51.48
63009;BME280;49099;28.428;-16.488;2023-05-19T09:29:38;99010.75;;;21.32;51.12
63009;BME280;49099;28.428;-16.488;2023-05-19T09:32:05;99005.81;;;21.34;51.12
63009;BME280;49099;28.428;-16.488;2023-05-19T09:34:33;99002.94;;;21.31;50.86
63009;BME280;49099;28.428;-16.488;2023-05-19T09:37:00;99007.06;;;21.37;51.30
63009;BME280;49099;28.428;-16.488;2023-05-19T09:39:28;99009.44;;;21.38;50.19
63009;BME280;49099;28.428;-16.488;2023-05-19T09:41:55;99009.47;;;21.30;50.65
63009;BME280;49099;28.428;-16.488;2023-05-19T09:44:26;99012.47;;;21.20;51.75
63009;BME280;49099;28.428;-16.488;2023-05-19T09:46:57;99000.91;;;21.19;51.57
63009;BME280;49099;28.428;-16.488;2023-05-19T09:49:26;99012.31;;;21.33;51.24
63009;BME280;49099;28.428;-16.488;2023-05-19T09:52:03;99015.47;;;21.35;52.44
63009;BME280;49099;28.428;-16.488;2023-05-19T09:54:33;99018.03;;;21.40;51.81
63009;BME280;49099;28.428;-16.488;2023-05-19T09:57:02;99021.59;;;21.53;51.26
63009;BME280;49099;28.428;-16.488;2023-05-19T09:59:32;99020.00;;;21.61;51.22
63009;BME280;49099;28.428;-16.488;2023-05-19T10:02:00;99019.63;;;21.71;51.16
63009;BME280;49099;28.428;-16.488;2023-05-19T10:04:29;99018.34;;;21.77;50.92
63009;BME280;49099;28.428;-16.488;2023-05-19T10:06:57;99011.81;;;21.78;50.84
63009;BME280;49099;28.428;-16.488;2023-05-19T10:09:31;99015.00;;;21.80;49.81
63009;BME280;49099;28.428;-16.488;2023-05-19T10:12:01;99021.78;;;21.86;49.53
63009;BME280;49099;28.428;-16.488;2023-05-19T10:14:29;99022.28;;;21.88;49.56
63009;BME280;49099;28.428;-16.488;2023-05-19T10:16:57;99009.88;;;21.87;48.91
63009;BME280;49099;28.428;-16.488;2023-05-19T10:19:27;99014.22;;;21.71;48.99
63009;BME280;49099;28.428;-16.488;2023-05-19T10:21:55;99006.75;;;21.77;49.46
63009;BME280;49099;28.428;-16.488;2023-05-19T10:24:22;99006.69;;;21.85;48.78
63009;BME280;49099;28.428;-16.488;2023-05-19T10:26:57;99000.66;;;21.88;48.56
63009;BME280;49099;28.428;-16.488;2023-05-19T10:29:30;99003.38;;;21.88;48.01
63009;BME280;49099;28.428;-16.488;2023-05-19T10:32:00;99001.97;;;21.82;47.52
63009;BME280;49099;28.428;-16.488;2023-05-19T10:40:32;98991.44;;;21.89;48.80
63009;BME280;49099;28.428;-16.488;2023-05-19T10:43:22;98995.53;;;21.95;48.54
63009;BME280;49099;28.428;-16.488;2023-05-19T10:45:52;99005.34;;;22.09;49.11
63009;BME280;49099;28.428;-16.488;2023-05-19T10:48:21;99005.88;;;22.23;48.43
63009;BME280;49099;28.428;-16.488;2023-05-19T10:50:52;99004.31;;;22.22;47.97
63009;BME280;49099;28.428;-16.488;2023-05-19T10:53:21;99003.00;;;22.28;47.68
63009;BME280;49099;28.428;-16.488;2023-05-19T10:55:54;99006.09;;;22.39;47.49
63009;BME280;49099;28.428;-16.488;2023-05-19T11:01:14;99000.22;;;22.37;47.30
63009;BME280;49099;28.428;-16.488;2023-05-19T11:03:51;99003.00;;;22.28;47.49
63009;BME280;49099;28.428;-16.488;2023-05-19T11:06:20;99000.16;;;22.24;47.73
63009;BME280;49099;28.428;-16.488;2023-05-19T11:08:52;99004.31;;;22.22;47.72
63009;BME280;49099;28.428;-16.488;2023-05-19T11:11:19;98997.59;;;22.28;47.66
63009;BME280;49099;28.428;-16.488;2023-05-19T11:13:53;99000.47;;;22.23;47.88
63009;BME280;49099;28.428;-16.488;2023-05-19T11:16:27;98996.75;;;22.07;48.46
63009;BME280;49099;28.428;-16.488;2023-05-19T11:18:58;98985.16;;;22.06;47.58
63009;BME280;49099;28.428;-16.488;2023-05-19T11:22:10;98989.56;;;22.19;46.80
63009;BME280;49099;28.428;-16.488;2023-05-19T11:24:47;98986.97;;;22.23;46.47
63009;BME280;49099;28.428;-16.488;2023-05-19T11:27:24;98989.03;;;22.26;46.43
63009;BME280;49099;28.428;-16.488;2023-05-19T11:29:53;98987.63;;;22.41;46.23
63009;BME280;49099;28.428;-16.488;2023-05-19T11:32:29;98991.97;;;22.54;46.12
63009;BME280;49099;28.428;-16.488;2023-05-19T11:34:58;98990.75;;;22.51;45.76
63009;BME280;49099;28.428;-16.488;2023-05-19T11:37:26;98986.91;;;22.52;45.96
63009;BME280;49099;28.428;-16.488;2023-05-19T11:40:02;98977.88;;;22.48;45.72
63009;BME280;49099;28.428;-16.488;2023-05-19T11:42:35;98979.53;;;22.41;45.58
63009;BME280;49099;28.428;-16.488;2023-05-19T11:45:04;98973.66;;;22.39;45.64
63009;BME280;49099;28.428;-16.488;2023-05-19T11:47:32;98971.09;;;22.42;45.07
63009;BME280;49099;28.428;-16.488;2023-05-19T11:50:17;98975.69;;;22.63;45.05
63009;BME280;49099;28.428;-16.488;2023-05-19T11:52:46;98970.97;;;22.60;45.34
63009;BME280;49099;28.428;-16.488;2023-05-19T11:55:17;98968.28;;;22.72;45.11
63009;BME280;49099;28.428;-16.488;2023-05-19T12:00:34;98962.09;;;22.71;43.78
63009;BME280;49099;28.428;-16.488;2023-05-19T12:03:06;98959.06;;;22.73;43.84
63009;BME280;49099;28.428;-16.488;2023-05-19T12:05:41;98955.56;;;22.93;42.71
63009;BME280;49099;28.428;-16.488;2023-05-19T12:08:10;98953.44;;;22.99;42.42
63009;BME280;49099;28.428;-16.488;2023-05-19T12:10:38;98957.16;;;23.06;42.25
63009;BME280;49099;28.428;-16.488;2023-05-19T12:13:06;98961.44;;;23.07;41.77
63009;BME280;49099;28.428;-16.488;2023-05-19T12:15:36;98953.34;;;23.07;42.42
63009;BME280;49099;28.428;-16.488;2023-05-19T12:18:08;98949.75;;;23.16;41.61
63009;BME280;49099;28.428;-16.488;2023-05-19T12:20:36;98950.09;;;23.26;41.40
63009;BME280;49099;28.428;-16.488;2023-05-19T12:23:03;98943.44;;;23.24;41.11
63009;BME280;49099;28.428;-16.488;2023-05-19T12:25:31;98938.13;;;23.15;41.88
63009;BME280;49099;28.428;-16.488;2023-05-19T12:27:59;98946.16;;;23.12;43.29
63009;BME280;49099;28.428;-16.488;2023-05-19T12:30:31;98949.50;;;23.08;43.49
63009;BME280;49099;28.428;-16.488;2023-05-19T12:33:00;98939.59;;;23.13;44.00
63009;BME280;49099;28.428;-16.488;2023-05-19T12:35:29;98951.31;;;23.17;44.08
63009;BME280;49099;28.428;-16.488;2023-05-19T12:38:05;98935.78;;;23.14;44.08
63009;BME280;49099;28.428;-16.488;2023-05-19T12:40:33;98932.81;;;23.19;44.72
63009;BME280;49099;28.428;-16.488;2023-05-19T12:43:01;98925.88;;;23.30;44.44
63009;BME280;49099;28.428;-16.488;2023-05-19T12:45:33;98929.69;;;23.41;44.39
63009;BME280;49099;28.428;-16.488;2023-05-19T12:48:13;98928.13;;;23.40;44.29
63009;BME280;49099;28.428;-16.488;2023-05-19T12:50:43;98928.56;;;23.30;44.39
63009;BME280;49099;28.428;-16.488;2023-05-19T12:53:11;98933.06;;;23.26;45.35
63009;BME280;49099;28.428;-16.488;2023-05-19T12:55:40;98925.41;;;23.28;45.12
63009;BME280;49099;28.428;-16.488;2023-05-19T12:58:09;98924.97;;;23.38;45.38
63009;BME280;49099;28.428;-16.488;2023-05-19T13:00:43;98917.06;;;23.57;44.90
63009;BME280;49099;28.428;-16.488;2023-05-19T13:03:18;98924.28;;;23.53;44.98
63009;BME280;49099;28.428;-16.488;2023-05-19T13:05:49;98909.97;;;23.53;44.48
63009;BME280;49099;28.428;-16.488;2023-05-19T13:08:20;98915.94;;;23.58;44.90
63009;BME280;49099;28.428;-16.488;2023-05-19T13:10:49;98906.25;;;23.70;44.37
63009;BME280;49099;28.428;-16.488;2023-05-19T13:13:17;98908.50;;;23.80;44.48
63009;BME280;49099;28.428;-16.488;2023-05-19T13:15:45;98902.09;;;23.60;44.74
63009;BME280;49099;28.428;-16.488;2023-05-19T13:18:15;98907.03;;;23.58;45.22
63009;BME280;49099;28.428;-16.488;2023-05-19T13:20:44;98908.75;;;23.62;45.10